Weather at Johnson Creek Airport

Public forecast

Using degrees Fahrenheit for public forecast. Weather courtesy of forecast.io.

Closest aviation weather report (METAR) to Johnson Creek Airport

Closest report is McCall Municipal Airport, 26.2 nm (48.5 km) W. Retrieved 2021/09/28 18:22 UTC (39 seconds ago):

KMYL 281822Z AUTO 12003KT 7SM UP FEW009 OVC016 02/00 A3006

Closest aviation forecast (TAF) to Johnson Creek Airport

Closest forecast is McCall Municipal Airport, 26.2 nm (48.5 km) W. Retrieved 2021/09/28 18:42 UTC (0 seconds ago):

TAF KMYL 281740Z 2818/2918 VRB04KT 1SM -SHSN VV008 FM281830 28007KT P6SM VCSH BKN020 OVC050 FM290300 31008KT P6SM SCT040 FM290800 00000KT 1/4SM FZFG VV001 FM291600 VRB03KT P6SM SKC